sensor_id;sensor_type;location;lat;lon;timestamp;P1;durP1;ratioP1;P2;durP2;ratioP2
59587;SDS011;45412;54.472;18.464;2022-10-16T00:01:25;34.10;;;18.70;;
59587;SDS011;45412;54.472;18.464;2022-10-16T00:04:14;34.30;;;18.80;;
59587;SDS011;45412;54.472;18.464;2022-10-16T00:07:02;35.40;;;18.30;;
59587;SDS011;45412;54.472;18.464;2022-10-16T00:09:50;36.40;;;18.30;;
59587;SDS011;45412;54.472;18.464;2022-10-16T00:12:37;37.50;;;20.40;;
59587;SDS011;45412;54.472;18.464;2022-10-16T00:15:25;30.80;;;14.80;;
59587;SDS011;45412;54.472;18.464;2022-10-16T00:18:13;32.10;;;16.80;;
59587;SDS011;45412;54.472;18.464;2022-10-16T00:21:07;33.90;;;18.80;;
59587;SDS011;45412;54.472;18.464;2022-10-16T00:24:03;35.50;;;16.90;;
59587;SDS011;45412;54.472;18.464;2022-10-16T00:26:52;36.00;;;17.10;;
59587;SDS011;45412;54.472;18.464;2022-10-16T00:29:40;37.80;;;20.30;;
59587;SDS011;45412;54.472;18.464;2022-10-16T00:32:28;36.80;;;17.80;;
59587;SDS011;45412;54.472;18.464;2022-10-16T00:35:16;34.60;;;16.80;;
59587;SDS011;45412;54.472;18.464;2022-10-16T00:38:04;34.20;;;17.90;;
59587;SDS011;45412;54.472;18.464;2022-10-16T00:40:52;36.10;;;17.00;;
59587;SDS011;45412;54.472;18.464;2022-10-16T00:43:42;32.40;;;17.00;;
59587;SDS011;45412;54.472;18.464;2022-10-16T00:46:38;35.10;;;18.20;;
59587;SDS011;45412;54.472;18.464;2022-10-16T00:49:28;32.60;;;16.90;;
59587;SDS011;45412;54.472;18.464;2022-10-16T00:52:16;34.60;;;18.00;;
59587;SDS011;45412;54.472;18.464;2022-10-16T00:55:05;36.00;;;18.00;;
59587;SDS011;45412;54.472;18.464;2022-10-16T00:57:55;32.70;;;17.40;;
59587;SDS011;45412;54.472;18.464;2022-10-16T01:00:45;31.10;;;15.90;;
59587;SDS011;45412;54.472;18.464;2022-10-16T01:03:35;32.10;;;16.70;;
59587;SDS011;45412;54.472;18.464;2022-10-16T01:12:47;29.40;;;15.30;;
59587;SDS011;45412;54.472;18.464;2022-10-16T01:18:47;29.20;;;15.40;;
59587;SDS011;45412;54.472;18.464;2022-10-16T01:21:43;31.70;;;15.70;;
59587;SDS011;45412;54.472;18.464;2022-10-16T01:25:00;25.90;;;13.50;;
59587;SDS011;45412;54.472;18.464;2022-10-16T01:27:56;27.00;;;13.20;;
59587;SDS011;45412;54.472;18.464;2022-10-16T01:30:45;25.30;;;13.70;;
59587;SDS011;45412;54.472;18.464;2022-10-16T01:33:43;23.40;;;11.10;;
59587;SDS011;45412;54.472;18.464;2022-10-16T01:36:42;28.40;;;14.60;;
59587;SDS011;45412;54.472;18.464;2022-10-16T01:39:36;26.60;;;13.40;;
59587;SDS011;45412;54.472;18.464;2022-10-16T01:42:31;28.40;;;14.00;;
59587;SDS011;45412;54.472;18.464;2022-10-16T01:45:34;27.70;;;14.70;;
59587;SDS011;45412;54.472;18.464;2022-10-16T01:48:23;25.80;;;13.60;;
59587;SDS011;45412;54.472;18.464;2022-10-16T01:51:13;30.60;;;14.20;;
59587;SDS011;45412;54.472;18.464;2022-10-16T01:54:02;27.40;;;13.90;;
59587;SDS011;45412;54.472;18.464;2022-10-16T01:56:53;25.80;;;13.30;;
59587;SDS011;45412;54.472;18.464;2022-10-16T01:59:46;26.30;;;14.10;;
59587;SDS011;45412;54.472;18.464;2022-10-16T02:02:36;23.80;;;12.20;;
59587;SDS011;45412;54.472;18.464;2022-10-16T02:05:51;25.10;;;14.10;;
59587;SDS011;45412;54.472;18.464;2022-10-16T02:08:42;27.40;;;14.80;;
59587;SDS011;45412;54.472;18.464;2022-10-16T02:11:31;24.70;;;14.20;;
59587;SDS011;45412;54.472;18.464;2022-10-16T02:14:18;22.60;;;13.90;;
59587;SDS011;45412;54.472;18.464;2022-10-16T02:17:12;24.40;;;12.90;;
59587;SDS011;45412;54.472;18.464;2022-10-16T02:20:03;23.80;;;13.50;;
59587;SDS011;45412;54.472;18.464;2022-10-16T02:22:51;23.20;;;13.50;;
59587;SDS011;45412;54.472;18.464;2022-10-16T02:25:42;19.30;;;11.40;;
59587;SDS011;45412;54.472;18.464;2022-10-16T02:28:53;25.90;;;13.70;;
59587;SDS011;45412;54.472;18.464;2022-10-16T02:31:48;23.50;;;12.60;;
59587;SDS011;45412;54.472;18.464;2022-10-16T02:34:39;23.90;;;13.70;;
59587;SDS011;45412;54.472;18.464;2022-10-16T02:37:28;23.50;;;13.70;;
59587;SDS011;45412;54.472;18.464;2022-10-16T02:40:16;24.50;;;12.70;;
59587;SDS011;45412;54.472;18.464;2022-10-16T02:43:10;19.70;;;11.20;;
59587;SDS011;45412;54.472;18.464;2022-10-16T02:45:58;21.70;;;12.50;;
59587;SDS011;45412;54.472;18.464;2022-10-16T02:48:46;25.80;;;13.70;;
59587;SDS011;45412;54.472;18.464;2022-10-16T02:51:34;24.00;;;13.60;;
59587;SDS011;45412;54.472;18.464;2022-10-16T02:54:22;23.60;;;12.70;;
59587;SDS011;45412;54.472;18.464;2022-10-16T02:57:10;23.50;;;13.20;;
59587;SDS011;45412;54.472;18.464;2022-10-16T02:59:58;20.80;;;12.60;;
59587;SDS011;45412;54.472;18.464;2022-10-16T03:02:46;22.70;;;12.70;;
59587;SDS011;45412;54.472;18.464;2022-10-16T03:05:34;24.00;;;13.70;;
59587;SDS011;45412;54.472;18.464;2022-10-16T03:08:22;22.00;;;12.40;;
59587;SDS011;45412;54.472;18.464;2022-10-16T03:11:12;22.20;;;12.10;;
59587;SDS011;45412;54.472;18.464;2022-10-16T03:13:59;25.40;;;12.70;;
59587;SDS011;45412;54.472;18.464;2022-10-16T03:16:47;21.60;;;12.90;;
59587;SDS011;45412;54.472;18.464;2022-10-16T03:19:35;22.10;;;12.60;;
59587;SDS011;45412;54.472;18.464;2022-10-16T03:22:23;21.80;;;12.40;;
59587;SDS011;45412;54.472;18.464;2022-10-16T03:25:11;22.10;;;12.40;;
59587;SDS011;45412;54.472;18.464;2022-10-16T03:27:58;18.00;;;10.30;;
59587;SDS011;45412;54.472;18.464;2022-10-16T03:30:46;21.00;;;12.50;;
59587;SDS011;45412;54.472;18.464;2022-10-16T03:33:34;21.90;;;12.80;;
59587;SDS011;45412;54.472;18.464;2022-10-16T03:36:22;20.60;;;12.20;;
59587;SDS011;45412;54.472;18.464;2022-10-16T03:39:10;22.30;;;12.20;;
59587;SDS011;45412;54.472;18.464;2022-10-16T03:41:57;20.40;;;12.50;;
59587;SDS011;45412;54.472;18.464;2022-10-16T03:44:45;19.10;;;11.80;;
59587;SDS011;45412;54.472;18.464;2022-10-16T03:47:33;21.40;;;13.20;;
59587;SDS011;45412;54.472;18.464;2022-10-16T03:50:21;19.90;;;12.20;;
59587;SDS011;45412;54.472;18.464;2022-10-16T03:53:08;21.00;;;11.50;;
59587;SDS011;45412;54.472;18.464;2022-10-16T03:55:56;19.30;;;11.20;;
59587;SDS011;45412;54.472;18.464;2022-10-16T03:58:44;23.80;;;10.90;;
59587;SDS011;45412;54.472;18.464;2022-10-16T04:01:32;24.20;;;13.20;;
59587;SDS011;45412;54.472;18.464;2022-10-16T04:04:20;20.50;;;12.30;;
59587;SDS011;45412;54.472;18.464;2022-10-16T04:07:07;20.40;;;11.60;;
59587;SDS011;45412;54.472;18.464;2022-10-16T04:09:55;18.50;;;10.30;;
59587;SDS011;45412;54.472;18.464;2022-10-16T04:12:44;20.10;;;12.00;;
59587;SDS011;45412;54.472;18.464;2022-10-16T04:15:31;17.80;;;10.40;;
59587;SDS011;45412;54.472;18.464;2022-10-16T04:18:19;18.40;;;11.40;;
59587;SDS011;45412;54.472;18.464;2022-10-16T04:21:07;19.20;;;11.20;;
59587;SDS011;45412;54.472;18.464;2022-10-16T04:23:55;22.80;;;13.20;;
59587;SDS011;45412;54.472;18.464;2022-10-16T04:26:43;23.00;;;13.30;;
59587;SDS011;45412;54.472;18.464;2022-10-16T04:29:31;18.80;;;10.60;;
59587;SDS011;45412;54.472;18.464;2022-10-16T04:32:18;22.50;;;12.60;;
59587;SDS011;45412;54.472;18.464;2022-10-16T04:35:07;22.60;;;13.40;;
59587;SDS011;45412;54.472;18.464;2022-10-16T04:37:57;23.70;;;13.40;;
59587;SDS011;45412;54.472;18.464;2022-10-16T04:40:45;22.10;;;13.60;;
59587;SDS011;45412;54.472;18.464;2022-10-16T04:43:33;22.10;;;13.20;;
59587;SDS011;45412;54.472;18.464;2022-10-16T04:46:21;23.30;;;13.50;;
59587;SDS011;45412;54.472;18.464;2022-10-16T04:49:09;22.90;;;12.50;;
59587;SDS011;45412;54.472;18.464;2022-10-16T04:51:57;25.30;;;15.00;;
59587;SDS011;45412;54.472;18.464;2022-10-16T04:54:45;22.80;;;13.50;;
59587;SDS011;45412;54.472;18.464;2022-10-16T04:57:33;24.00;;;13.90;;
59587;SDS011;45412;54.472;18.464;2022-10-16T05:00:21;21.80;;;13.50;;
59587;SDS011;45412;54.472;18.464;2022-10-16T05:03:09;25.50;;;13.40;;
59587;SDS011;45412;54.472;18.464;2022-10-16T05:05:57;23.80;;;14.30;;
59587;SDS011;45412;54.472;18.464;2022-10-16T05:08:45;23.40;;;13.90;;
59587;SDS011;45412;54.472;18.464;2022-10-16T05:11:33;23.40;;;14.10;;
59587;SDS011;45412;54.472;18.464;2022-10-16T05:14:21;24.90;;;15.40;;
59587;SDS011;45412;54.472;18.464;2022-10-16T05:17:09;23.60;;;14.00;;
59587;SDS011;45412;54.472;18.464;2022-10-16T05:19:57;21.50;;;13.40;;
59587;SDS011;45412;54.472;18.464;2022-10-16T05:22:45;23.40;;;13.10;;
59587;SDS011;45412;54.472;18.464;2022-10-16T05:25:32;25.10;;;15.20;;
59587;SDS011;45412;54.472;18.464;2022-10-16T05:28:20;24.20;;;13.80;;
59587;SDS011;45412;54.472;18.464;2022-10-16T05:31:09;22.30;;;13.40;;
59587;SDS011;45412;54.472;18.464;2022-10-16T05:34:01;23.00;;;13.40;;
59587;SDS011;45412;54.472;18.464;2022-10-16T05:36:49;23.20;;;14.40;;
59587;SDS011;45412;54.472;18.464;2022-10-16T05:39:38;33.30;;;17.30;;
59587;SDS011;45412;54.472;18.464;2022-10-16T05:42:26;30.20;;;16.10;;
59587;SDS011;45412;54.472;18.464;2022-10-16T05:45:14;36.10;;;18.40;;
59587;SDS011;45412;54.472;18.464;2022-10-16T05:48:01;35.80;;;16.60;;
59587;SDS011;45412;54.472;18.464;2022-10-16T05:50:59;30.30;;;17.00;;
59587;SDS011;45412;54.472;18.464;2022-10-16T05:53:51;26.90;;;15.20;;
59587;SDS011;45412;54.472;18.464;2022-10-16T05:56:39;26.40;;;15.90;;
59587;SDS011;45412;54.472;18.464;2022-10-16T05:59:27;35.40;;;16.90;;
59587;SDS011;45412;54.472;18.464;2022-10-16T06:02:15;35.60;;;17.80;;
59587;SDS011;45412;54.472;18.464;2022-10-16T06:05:04;31.80;;;14.90;;
59587;SDS011;45412;54.472;18.464;2022-10-16T06:07:56;27.90;;;16.90;;
59587;SDS011;45412;54.472;18.464;2022-10-16T06:11:06;28.50;;;16.50;;
59587;SDS011;45412;54.472;18.464;2022-10-16T06:13:57;29.20;;;16.80;;
59587;SDS011;45412;54.472;18.464;2022-10-16T06:16:49;42.80;;;19.20;;
59587;SDS011;45412;54.472;18.464;2022-10-16T06:19:36;34.10;;;16.60;;
59587;SDS011;45412;54.472;18.464;2022-10-16T06:22:24;33.60;;;16.50;;
59587;SDS011;45412;54.472;18.464;2022-10-16T06:25:12;30.60;;;17.10;;
59587;SDS011;45412;54.472;18.464;2022-10-16T06:27:59;28.80;;;15.60;;
59587;SDS011;45412;54.472;18.464;2022-10-16T06:30:58;25.10;;;15.80;;
59587;SDS011;45412;54.472;18.464;2022-10-16T06:33:53;29.20;;;16.50;;
59587;SDS011;45412;54.472;18.464;2022-10-16T06:36:42;23.00;;;14.90;;
59587;SDS011;45412;54.472;18.464;2022-10-16T06:39:31;23.20;;;14.10;;
59587;SDS011;45412;54.472;18.464;2022-10-16T06:42:19;24.10;;;15.30;;
59587;SDS011;45412;54.472;18.464;2022-10-16T06:45:06;27.20;;;15.90;;
59587;SDS011;45412;54.472;18.464;2022-10-16T06:47:55;24.50;;;15.70;;
59587;SDS011;45412;54.472;18.464;2022-10-16T06:50:43;21.90;;;13.90;;
59587;SDS011;45412;54.472;18.464;2022-10-16T06:53:33;23.00;;;13.90;;
59587;SDS011;45412;54.472;18.464;2022-10-16T06:56:35;21.80;;;13.60;;
59587;SDS011;45412;54.472;18.464;2022-10-16T06:59:25;19.80;;;12.70;;
59587;SDS011;45412;54.472;18.464;2022-10-16T07:02:13;22.50;;;14.00;;
59587;SDS011;45412;54.472;18.464;2022-10-16T07:05:01;22.30;;;13.90;;
59587;SDS011;45412;54.472;18.464;2022-10-16T07:07:48;22.60;;;14.60;;
59587;SDS011;45412;54.472;18.464;2022-10-16T07:10:38;22.60;;;14.10;;
59587;SDS011;45412;54.472;18.464;2022-10-16T07:13:26;19.60;;;12.40;;
59587;SDS011;45412;54.472;18.464;2022-10-16T07:16:20;21.80;;;13.90;;
59587;SDS011;45412;54.472;18.464;2022-10-16T07:19:09;20.40;;;12.80;;
59587;SDS011;45412;54.472;18.464;2022-10-16T07:21:58;19.80;;;12.80;;
59587;SDS011;45412;54.472;18.464;2022-10-16T07:24:47;17.00;;;11.10;;
59587;SDS011;45412;54.472;18.464;2022-10-16T07:27:41;17.30;;;10.70;;
59587;SDS011;45412;54.472;18.464;2022-10-16T07:30:29;16.90;;;10.10;;
59587;SDS011;45412;54.472;18.464;2022-10-16T07:33:17;17.30;;;10.50;;
59587;SDS011;45412;54.472;18.464;2022-10-16T07:36:05;18.50;;;11.20;;
59587;SDS011;45412;54.472;18.464;2022-10-16T07:38:57;19.90;;;12.20;;
59587;SDS011;45412;54.472;18.464;2022-10-16T07:41:46;17.90;;;10.20;;
59587;SDS011;45412;54.472;18.464;2022-10-16T07:44:34;19.70;;;11.70;;
59587;SDS011;45412;54.472;18.464;2022-10-16T07:47:22;18.90;;;11.20;;
59587;SDS011;45412;54.472;18.464;2022-10-16T07:50:11;19.10;;;12.20;;
59587;SDS011;45412;54.472;18.464;2022-10-16T07:52:59;19.10;;;12.60;;
59587;SDS011;45412;54.472;18.464;2022-10-16T07:55:47;18.10;;;11.60;;
59587;SDS011;45412;54.472;18.464;2022-10-16T07:58:35;20.90;;;12.70;;
59587;SDS011;45412;54.472;18.464;2022-10-16T08:01:24;22.00;;;14.10;;
59587;SDS011;45412;54.472;18.464;2022-10-16T08:04:12;23.40;;;14.60;;
59587;SDS011;45412;54.472;18.464;2022-10-16T08:07:00;21.40;;;13.90;;
59587;SDS011;45412;54.472;18.464;2022-10-16T08:09:51;25.50;;;15.10;;
59587;SDS011;45412;54.472;18.464;2022-10-16T08:12:44;23.70;;;10.30;;
59587;SDS011;45412;54.472;18.464;2022-10-16T08:15:32;25.10;;;15.50;;
59587;SDS011;45412;54.472;18.464;2022-10-16T08:18:19;26.10;;;16.50;;
59587;SDS011;45412;54.472;18.464;2022-10-16T08:21:15;23.60;;;14.00;;
59587;SDS011;45412;54.472;18.464;2022-10-16T08:24:07;25.50;;;15.40;;
59587;SDS011;45412;54.472;18.464;2022-10-16T08:26:55;24.20;;;15.20;;
59587;SDS011;45412;54.472;18.464;2022-10-16T08:29:43;27.20;;;16.50;;
59587;SDS011;45412;54.472;18.464;2022-10-16T08:32:31;25.80;;;17.00;;
59587;SDS011;45412;54.472;18.464;2022-10-16T08:35:19;25.60;;;16.10;;
59587;SDS011;45412;54.472;18.464;2022-10-16T08:38:07;25.90;;;15.50;;
59587;SDS011;45412;54.472;18.464;2022-10-16T08:41:02;34.70;;;18.60;;
59587;SDS011;45412;54.472;18.464;2022-10-16T08:50:13;31.10;;;16.90;;
59587;SDS011;45412;54.472;18.464;2022-10-16T08:53:14;34.20;;;17.40;;
59587;SDS011;45412;54.472;18.464;2022-10-16T08:56:07;33.90;;;17.60;;
59587;SDS011;45412;54.472;18.464;2022-10-16T08:58:57;29.60;;;16.70;;
59587;SDS011;45412;54.472;18.464;2022-10-16T09:01:50;34.30;;;19.70;;
59587;SDS011;45412;54.472;18.464;2022-10-16T09:24:22;27.90;;;16.40;;
59587;SDS011;45412;54.472;18.464;2022-10-16T09:27:15;24.80;;;15.40;;
59587;SDS011;45412;54.472;18.464;2022-10-16T09:30:29;26.80;;;15.90;;
59587;SDS011;45412;54.472;18.464;2022-10-16T09:33:20;25.80;;;15.60;;
59587;SDS011;45412;54.472;18.464;2022-10-16T09:36:22;26.50;;;15.20;;
59587;SDS011;45412;54.472;18.464;2022-10-16T09:39:25;26.50;;;15.70;;
59587;SDS011;45412;54.472;18.464;2022-10-16T09:42:34;25.60;;;16.20;;
59587;SDS011;45412;54.472;18.464;2022-10-16T09:45:24;24.90;;;15.00;;
59587;SDS011;45412;54.472;18.464;2022-10-16T09:48:12;26.50;;;15.90;;
59587;SDS011;45412;54.472;18.464;2022-10-16T09:51:22;26.40;;;15.50;;
59587;SDS011;45412;54.472;18.464;2022-10-16T09:54:20;27.60;;;16.30;;
59587;SDS011;45412;54.472;18.464;2022-10-16T09:57:23;26.40;;;15.50;;
59587;SDS011;45412;54.472;18.464;2022-10-16T10:00:16;27.00;;;17.00;;
59587;SDS011;45412;54.472;18.464;2022-10-16T10:03:10;25.90;;;16.00;;
59587;SDS011;45412;54.472;18.464;2022-10-16T10:06:13;27.00;;;16.30;;
59587;SDS011;45412;54.472;18.464;2022-10-16T10:09:31;26.00;;;14.50;;
59587;SDS011;45412;54.472;18.464;2022-10-16T10:12:26;28.00;;;16.30;;
59587;SDS011;45412;54.472;18.464;2022-10-16T10:15:16;26.10;;;15.70;;
59587;SDS011;45412;54.472;18.464;2022-10-16T10:18:20;23.20;;;13.60;;
59587;SDS011;45412;54.472;18.464;2022-10-16T10:21:13;26.80;;;14.80;;
59587;SDS011;45412;54.472;18.464;2022-10-16T10:24:02;26.80;;;16.70;;
59587;SDS011;45412;54.472;18.464;2022-10-16T10:27:10;28.10;;;16.40;;
59587;SDS011;45412;54.472;18.464;2022-10-16T10:43:36;28.70;;;16.50;;
59587;SDS011;45412;54.472;18.464;2022-10-16T10:46:41;30.60;;;17.10;;
59587;SDS011;45412;54.472;18.464;2022-10-16T11:02:59;25.90;;;14.60;;
59587;SDS011;45412;54.472;18.464;2022-10-16T11:09:23;23.40;;;13.80;;
59587;SDS011;45412;54.472;18.464;2022-10-16T11:12:18;24.10;;;14.10;;
59587;SDS011;45412;54.472;18.464;2022-10-16T11:15:14;20.40;;;13.40;;
59587;SDS011;45412;54.472;18.464;2022-10-16T11:18:16;18.10;;;12.10;;
59587;SDS011;45412;54.472;18.464;2022-10-16T11:21:09;21.50;;;12.00;;
59587;SDS011;45412;54.472;18.464;2022-10-16T11:24:17;16.50;;;11.20;;
59587;SDS011;45412;54.472;18.464;2022-10-16T11:27:15;16.80;;;11.00;;
59587;SDS011;45412;54.472;18.464;2022-10-16T11:30:25;16.90;;;10.10;;
59587;SDS011;45412;54.472;18.464;2022-10-16T11:42:16;16.80;;;10.50;;
59587;SDS011;45412;54.472;18.464;2022-10-16T11:45:46;15.60;;;9.20;;
59587;SDS011;45412;54.472;18.464;2022-10-16T11:52:11;12.60;;;8.40;;
59587;SDS011;45412;54.472;18.464;2022-10-16T11:55:41;12.80;;;7.50;;
59587;SDS011;45412;54.472;18.464;2022-10-16T12:01:58;12.00;;;7.50;;
59587;SDS011;45412;54.472;18.464;2022-10-16T12:08:34;11.50;;;7.00;;
59587;SDS011;45412;54.472;18.464;2022-10-16T12:14:43;11.10;;;6.90;;
59587;SDS011;45412;54.472;18.464;2022-10-16T12:17:49;10.40;;;6.80;;
59587;SDS011;45412;54.472;18.464;2022-10-16T12:20:38;11.80;;;7.10;;
59587;SDS011;45412;54.472;18.464;2022-10-16T12:23:37;11.10;;;6.30;;
59587;SDS011;45412;54.472;18.464;2022-10-16T12:26:33;11.10;;;6.30;;
59587;SDS011;45412;54.472;18.464;2022-10-16T12:29:38;11.20;;;6.00;;
59587;SDS011;45412;54.472;18.464;2022-10-16T12:32:34;10.50;;;5.40;;
59587;SDS011;45412;54.472;18.464;2022-10-16T12:35:34;11.60;;;6.20;;
59587;SDS011;45412;54.472;18.464;2022-10-16T12:38:52;11.10;;;6.10;;
59587;SDS011;45412;54.472;18.464;2022-10-16T12:41:41;11.30;;;6.40;;
59587;SDS011;45412;54.472;18.464;2022-10-16T12:44:36;10.70;;;6.20;;
59587;SDS011;45412;54.472;18.464;2022-10-16T12:50:38;10.10;;;5.50;;
59587;SDS011;45412;54.472;18.464;2022-10-16T12:53:27;10.20;;;5.70;;
59587;SDS011;45412;54.472;18.464;2022-10-16T12:56:22;9.30;;;5.80;;
59587;SDS011;45412;54.472;18.464;2022-10-16T12:59:53;10.80;;;6.00;;
59587;SDS011;45412;54.472;18.464;2022-10-16T13:10:27;9.20;;;6.20;;
59587;SDS011;45412;54.472;18.464;2022-10-16T13:13:58;10.00;;;5.10;;
59587;SDS011;45412;54.472;18.464;2022-10-16T13:29:05;11.20;;;5.00;;
59587;SDS011;45412;54.472;18.464;2022-10-16T13:31:54;8.00;;;4.50;;
59587;SDS011;45412;54.472;18.464;2022-10-16T13:34:46;9.00;;;4.70;;
59587;SDS011;45412;54.472;18.464;2022-10-16T13:37:35;9.00;;;4.70;;
59587;SDS011;45412;54.472;18.464;2022-10-16T13:40:24;10.40;;;5.40;;
59587;SDS011;45412;54.472;18.464;2022-10-16T13:43:12;9.40;;;4.80;;
59587;SDS011;45412;54.472;18.464;2022-10-16T13:46:23;9.50;;;5.40;;
59587;SDS011;45412;54.472;18.464;2022-10-16T13:49:15;9.80;;;5.30;;
59587;SDS011;45412;54.472;18.464;2022-10-16T13:52:04;13.30;;;7.00;;
59587;SDS011;45412;54.472;18.464;2022-10-16T13:54:52;11.40;;;6.80;;
59587;SDS011;45412;54.472;18.464;2022-10-16T13:57:47;10.90;;;6.00;;
59587;SDS011;45412;54.472;18.464;2022-10-16T14:00:35;11.30;;;5.40;;
59587;SDS011;45412;54.472;18.464;2022-10-16T14:03:24;10.70;;;5.40;;
59587;SDS011;45412;54.472;18.464;2022-10-16T14:06:14;11.30;;;5.90;;
59587;SDS011;45412;54.472;18.464;2022-10-16T14:09:06;16.30;;;6.20;;
59587;SDS011;45412;54.472;18.464;2022-10-16T14:12:01;13.20;;;6.60;;
59587;SDS011;45412;54.472;18.464;2022-10-16T14:14:54;18.70;;;6.80;;
59587;SDS011;45412;54.472;18.464;2022-10-16T14:17:47;19.40;;;7.50;;
59587;SDS011;45412;54.472;18.464;2022-10-16T14:20:39;15.60;;;7.20;;
59587;SDS011;45412;54.472;18.464;2022-10-16T14:23:34;20.70;;;7.10;;
59587;SDS011;45412;54.472;18.464;2022-10-16T14:26:27;20.20;;;6.30;;
59587;SDS011;45412;54.472;18.464;2022-10-16T14:29:19;25.80;;;7.70;;
59587;SDS011;45412;54.472;18.464;2022-10-16T14:32:22;16.30;;;6.90;;
59587;SDS011;45412;54.472;18.464;2022-10-16T14:35:26;14.10;;;7.20;;
59587;SDS011;45412;54.472;18.464;2022-10-16T14:38:29;17.70;;;7.70;;
59587;SDS011;45412;54.472;18.464;2022-10-16T14:41:41;26.00;;;7.60;;
59587;SDS011;45412;54.472;18.464;2022-10-16T14:44:32;23.80;;;8.50;;
59587;SDS011;45412;54.472;18.464;2022-10-16T14:47:22;34.70;;;8.40;;
59587;SDS011;45412;54.472;18.464;2022-10-16T14:50:14;24.60;;;8.90;;
59587;SDS011;45412;54.472;18.464;2022-10-16T14:53:09;20.90;;;6.90;;
59587;SDS011;45412;54.472;18.464;2022-10-16T14:56:06;17.10;;;7.50;;
59587;SDS011;45412;54.472;18.464;2022-10-16T14:58:55;16.00;;;7.80;;
59587;SDS011;45412;54.472;18.464;2022-10-16T15:01:45;16.50;;;7.70;;
59587;SDS011;45412;54.472;18.464;2022-10-16T15:04:34;13.70;;;8.00;;
59587;SDS011;45412;54.472;18.464;2022-10-16T15:07:23;14.20;;;8.00;;
59587;SDS011;45412;54.472;18.464;2022-10-16T15:10:20;13.20;;;7.90;;
59587;SDS011;45412;54.472;18.464;2022-10-16T15:13:12;13.00;;;8.00;;
59587;SDS011;45412;54.472;18.464;2022-10-16T15:16:01;13.10;;;7.60;;
59587;SDS011;45412;54.472;18.464;2022-10-16T15:19:09;18.40;;;7.60;;
59587;SDS011;45412;54.472;18.464;2022-10-16T15:21:59;15.00;;;7.80;;
59587;SDS011;45412;54.472;18.464;2022-10-16T15:24:47;14.80;;;7.60;;
59587;SDS011;45412;54.472;18.464;2022-10-16T15:27:35;15.30;;;8.70;;
59587;SDS011;45412;54.472;18.464;2022-10-16T15:30:31;13.80;;;7.70;;
59587;SDS011;45412;54.472;18.464;2022-10-16T15:33:27;13.20;;;7.70;;
59587;SDS011;45412;54.472;18.464;2022-10-16T15:36:36;15.10;;;8.10;;
59587;SDS011;45412;54.472;18.464;2022-10-16T15:39:25;14.90;;;8.80;;
59587;SDS011;45412;54.472;18.464;2022-10-16T15:42:14;14.50;;;8.60;;
59587;SDS011;45412;54.472;18.464;2022-10-16T15:45:04;15.30;;;8.60;;
59587;SDS011;45412;54.472;18.464;2022-10-16T15:48:01;20.00;;;9.50;;
59587;SDS011;45412;54.472;18.464;2022-10-16T15:50:49;14.40;;;8.30;;
59587;SDS011;45412;54.472;18.464;2022-10-16T15:53:39;15.50;;;9.50;;
59587;SDS011;45412;54.472;18.464;2022-10-16T15:56:28;15.80;;;9.50;;
59587;SDS011;45412;54.472;18.464;2022-10-16T16:00:58;18.80;;;10.50;;
59587;SDS011;45412;54.472;18.464;2022-10-16T16:03:54;18.20;;;11.00;;
59587;SDS011;45412;54.472;18.464;2022-10-16T16:06:43;18.80;;;10.70;;
59587;SDS011;45412;54.472;18.464;2022-10-16T16:09:34;16.10;;;10.50;;
59587;SDS011;45412;54.472;18.464;2022-10-16T16:12:22;16.70;;;11.20;;
59587;SDS011;45412;54.472;18.464;2022-10-16T16:15:11;21.10;;;10.30;;
59587;SDS011;45412;54.472;18.464;2022-10-16T16:17:59;16.30;;;11.40;;
59587;SDS011;45412;54.472;18.464;2022-10-16T16:20:50;17.60;;;11.60;;
59587;SDS011;45412;54.472;18.464;2022-10-16T16:23:39;18.90;;;11.40;;
59587;SDS011;45412;54.472;18.464;2022-10-16T16:26:49;23.10;;;12.10;;
59587;SDS011;45412;54.472;18.464;2022-10-16T16:29:37;18.80;;;12.10;;
59587;SDS011;45412;54.472;18.464;2022-10-16T16:32:27;21.20;;;11.80;;
59587;SDS011;45412;54.472;18.464;2022-10-16T16:35:20;18.30;;;12.20;;
59587;SDS011;45412;54.472;18.464;2022-10-16T16:38:10;18.00;;;11.20;;
59587;SDS011;45412;54.472;18.464;2022-10-16T16:41:19;18.20;;;11.80;;
59587;SDS011;45412;54.472;18.464;2022-10-16T16:44:17;19.10;;;11.80;;
59587;SDS011;45412;54.472;18.464;2022-10-16T16:47:05;20.50;;;11.80;;
59587;SDS011;45412;54.472;18.464;2022-10-16T16:50:01;19.00;;;12.00;;
59587;SDS011;45412;54.472;18.464;2022-10-16T16:52:54;22.60;;;12.80;;
59587;SDS011;45412;54.472;18.464;2022-10-16T16:56:01;24.40;;;13.60;;
59587;SDS011;45412;54.472;18.464;2022-10-16T16:58:58;22.60;;;13.30;;
59587;SDS011;45412;54.472;18.464;2022-10-16T17:01:47;23.30;;;13.00;;
59587;SDS011;45412;54.472;18.464;2022-10-16T17:04:43;22.70;;;13.90;;
59587;SDS011;45412;54.472;18.464;2022-10-16T17:07:32;22.90;;;13.10;;
59587;SDS011;45412;54.472;18.464;2022-10-16T17:10:29;22.20;;;13.20;;
59587;SDS011;45412;54.472;18.464;2022-10-16T17:13:18;20.70;;;12.20;;
59587;SDS011;45412;54.472;18.464;2022-10-16T17:16:10;22.00;;;13.00;;
59587;SDS011;45412;54.472;18.464;2022-10-16T17:19:02;20.70;;;12.20;;
59587;SDS011;45412;54.472;18.464;2022-10-16T17:21:55;21.20;;;13.00;;
59587;SDS011;45412;54.472;18.464;2022-10-16T17:24:48;22.00;;;12.60;;
59587;SDS011;45412;54.472;18.464;2022-10-16T17:27:42;19.90;;;12.90;;
59587;SDS011;45412;54.472;18.464;2022-10-16T17:30:30;21.00;;;12.90;;
59587;SDS011;45412;54.472;18.464;2022-10-16T17:33:23;18.20;;;12.80;;
59587;SDS011;45412;54.472;18.464;2022-10-16T17:36:12;20.10;;;13.40;;
59587;SDS011;45412;54.472;18.464;2022-10-16T17:39:05;21.10;;;13.00;;
59587;SDS011;45412;54.472;18.464;2022-10-16T17:41:54;25.50;;;13.60;;
59587;SDS011;45412;54.472;18.464;2022-10-16T17:44:43;26.80;;;15.20;;
59587;SDS011;45412;54.472;18.464;2022-10-16T17:47:31;47.30;;;17.30;;
59587;SDS011;45412;54.472;18.464;2022-10-16T17:50:19;60.30;;;18.80;;
59587;SDS011;45412;54.472;18.464;2022-10-16T17:53:08;71.40;;;17.80;;
59587;SDS011;45412;54.472;18.464;2022-10-16T17:55:56;39.00;;;15.70;;
59587;SDS011;45412;54.472;18.464;2022-10-16T17:58:50;49.70;;;18.70;;
59587;SDS011;45412;54.472;18.464;2022-10-16T18:01:44;36.00;;;16.60;;
59587;SDS011;45412;54.472;18.464;2022-10-16T18:04:33;32.60;;;15.30;;
59587;SDS011;45412;54.472;18.464;2022-10-16T18:07:22;33.90;;;16.80;;
59587;SDS011;45412;54.472;18.464;2022-10-16T18:10:13;27.00;;;15.50;;
59587;SDS011;45412;54.472;18.464;2022-10-16T18:13:07;24.90;;;14.30;;
59587;SDS011;45412;54.472;18.464;2022-10-16T18:16:00;24.20;;;14.60;;
59587;SDS011;45412;54.472;18.464;2022-10-16T18:18:49;26.60;;;15.50;;
59587;SDS011;45412;54.472;18.464;2022-10-16T18:21:39;24.90;;;15.00;;
59587;SDS011;45412;54.472;18.464;2022-10-16T18:24:32;27.20;;;15.10;;
59587;SDS011;45412;54.472;18.464;2022-10-16T18:27:21;25.10;;;14.70;;
59587;SDS011;45412;54.472;18.464;2022-10-16T18:30:11;23.40;;;14.60;;